createdAt,value
2019-06-10T00:00:41.808Z,17.20
2019-06-10T00:03:11.468Z,17.10
2019-06-10T00:05:41.818Z,17.10
2019-06-10T00:08:11.978Z,17.10
2019-06-10T00:10:42.054Z,17.10
2019-06-10T00:13:11.803Z,17.00
2019-06-10T00:15:41.028Z,17.00
2019-06-10T00:18:32.848Z,17.00
2019-06-10T00:20:40.923Z,17.00
2019-06-10T00:23:12.118Z,17.00
2019-06-10T00:25:41.467Z,17.00
2019-06-10T00:28:11.977Z,17.00
2019-06-10T00:30:41.364Z,16.90
2019-06-10T00:33:12.569Z,16.90
2019-06-10T00:35:41.241Z,16.90
2019-06-10T00:38:13.900Z,16.90
2019-06-10T00:40:41.692Z,16.90
2019-06-10T00:43:13.125Z,16.80
2019-06-10T00:45:41.176Z,16.80
2019-06-10T00:48:20.203Z,16.80
2019-06-10T00:50:41.443Z,16.80
2019-06-10T00:53:14.008Z,16.70
2019-06-10T00:55:41.577Z,16.70
2019-06-10T00:58:13.415Z,16.70
2019-06-10T01:00:41.335Z,16.70
2019-06-10T01:03:13.438Z,16.70
2019-06-10T01:05:42.284Z,16.60
2019-06-10T01:08:15.096Z,16.60
2019-06-10T01:10:43.925Z,16.60
2019-06-10T01:13:13.152Z,16.60
2019-06-10T01:15:41.887Z,16.50
2019-06-10T01:18:28.724Z,16.50
2019-06-10T01:20:41.279Z,16.50
2019-06-10T01:23:13.910Z,16.40
2019-06-10T01:25:42.294Z,16.40
2019-06-10T01:28:13.297Z,16.40
2019-06-10T01:30:41.355Z,16.40
2019-06-10T01:33:11.364Z,16.30
2019-06-10T01:35:41.425Z,16.20
2019-06-10T01:38:12.865Z,16.20
2019-06-10T01:40:42.198Z,16.20
2019-06-10T01:43:13.382Z,16.20
2019-06-10T01:45:41.885Z,16.20
2019-06-10T01:48:12.058Z,16.20
2019-06-10T01:50:40.854Z,16.10
2019-06-10T01:53:11.858Z,16.10
2019-06-10T01:55:41.470Z,16.10
2019-06-10T01:58:10.615Z,16.10
2019-06-10T02:00:53.730Z,16.10
2019-06-10T02:03:23.990Z,16.10
2019-06-10T02:05:52.538Z,16.00
2019-06-10T02:08:22.155Z,16.10
2019-06-10T02:10:51.043Z,16.00
2019-06-10T02:13:32.666Z,16.00
2019-06-10T02:16:02.350Z,16.00
2019-06-10T02:18:31.880Z,16.00
2019-06-10T02:21:01.381Z,16.00
2019-06-10T02:23:31.489Z,16.00
2019-06-10T02:26:01.545Z,15.90
2019-06-10T02:28:31.681Z,15.90
2019-06-10T02:31:03.269Z,15.90
2019-06-10T02:33:36.022Z,15.90
2019-06-10T02:36:04.112Z,15.80
2019-06-10T02:38:35.490Z,15.80
2019-06-10T02:41:04.229Z,15.80
2019-06-10T02:43:36.266Z,15.70
2019-06-10T02:46:04.431Z,15.70
2019-06-10T02:48:35.102Z,15.70
2019-06-10T02:51:05.386Z,15.60
2019-06-10T02:53:36.268Z,15.60
2019-06-10T02:56:06.977Z,15.50
2019-06-10T02:58:39.164Z,15.50
2019-06-10T03:01:06.451Z,15.50
2019-06-10T03:03:43.742Z,15.40
2019-06-10T03:06:08.884Z,15.40
2019-06-10T03:08:37.205Z,15.30
2019-06-10T03:11:06.950Z,15.30
2019-06-10T03:13:35.369Z,15.30
2019-06-10T03:16:19.932Z,15.30
2019-06-10T03:18:47.690Z,15.20
2019-06-10T03:21:16.101Z,15.20
2019-06-10T03:23:44.609Z,15.10
2019-06-10T03:26:13.025Z,15.10
2019-06-10T03:28:42.865Z,15.10
2019-06-10T03:31:15.019Z,15.00
2019-06-10T03:33:46.971Z,15.00
2019-06-10T03:36:12.438Z,15.00
2019-06-10T03:38:43.224Z,14.90
2019-06-10T03:41:12.543Z,14.90
2019-06-10T03:43:42.879Z,14.90
2019-06-10T03:46:13.650Z,14.90
2019-06-10T03:48:43.280Z,14.90
2019-06-10T03:51:12.590Z,14.90
2019-06-10T03:53:42.565Z,14.90
2019-06-10T03:56:12.838Z,14.90
2019-06-10T03:58:43.024Z,14.90
2019-06-10T04:01:12.470Z,14.90
2019-06-10T04:03:42.810Z,14.90
2019-06-10T04:06:13.013Z,14.90
2019-06-10T04:08:43.337Z,15.00
2019-06-10T04:11:12.291Z,15.00
2019-06-10T04:13:42.985Z,15.00
2019-06-10T04:16:13.099Z,15.00
2019-06-10T04:18:42.974Z,15.00
2019-06-10T04:21:12.967Z,15.10
2019-06-10T04:23:42.407Z,15.10
2019-06-10T04:26:12.846Z,15.10
2019-06-10T04:28:43.003Z,15.10
2019-06-10T04:31:13.197Z,15.10
2019-06-10T04:33:42.224Z,15.20
2019-06-10T04:36:13.211Z,15.20
2019-06-10T04:38:43.290Z,15.30
2019-06-10T04:41:12.606Z,15.20
2019-06-10T04:43:43.153Z,15.30
2019-06-10T04:46:12.735Z,15.20
2019-06-10T04:48:42.705Z,15.30
2019-06-10T04:51:12.955Z,15.20
2019-06-10T04:53:43.514Z,15.20
2019-06-10T04:56:12.367Z,15.20
2019-06-10T04:58:43.371Z,15.20
2019-06-10T05:01:12.168Z,15.20
2019-06-10T05:03:43.218Z,15.20
2019-06-10T05:06:12.378Z,15.20
2019-06-10T05:08:42.662Z,15.20
2019-06-10T05:11:12.841Z,15.20
2019-06-10T05:13:42.943Z,15.20
2019-06-10T05:16:12.638Z,15.20
2019-06-10T05:18:42.463Z,15.10
2019-06-10T05:21:13.097Z,15.10
2019-06-10T05:23:43.043Z,15.10
2019-06-10T05:26:13.400Z,15.10
2019-06-10T05:28:43.167Z,15.20
2019-06-10T05:31:12.867Z,15.20
2019-06-10T05:33:42.642Z,15.20
2019-06-10T05:36:13.126Z,15.20
2019-06-10T05:38:43.579Z,15.20
2019-06-10T05:41:13.408Z,15.20
2019-06-10T05:43:43.525Z,15.30
2019-06-10T05:46:13.428Z,15.30
2019-06-10T05:48:43.808Z,15.40
2019-06-10T05:51:12.470Z,15.40
2019-06-10T05:53:42.608Z,15.40
2019-06-10T05:56:12.886Z,15.50
2019-06-10T05:58:43.631Z,15.50
2019-06-10T06:01:13.274Z,15.60
2019-06-10T06:03:43.868Z,15.60
2019-06-10T06:06:13.549Z,15.70
2019-06-10T06:08:42.845Z,15.70
2019-06-10T06:11:12.660Z,15.80
2019-06-10T06:13:43.241Z,15.90
2019-06-10T06:16:12.648Z,16.00
2019-06-10T06:18:42.187Z,16.10
2019-06-10T06:21:22.417Z,16.10
2019-06-10T06:23:43.591Z,16.30
2019-06-10T06:26:16.556Z,16.40
2019-06-10T06:28:43.383Z,16.50
2019-06-10T06:31:12.656Z,16.60
2019-06-10T06:33:43.289Z,16.70
2019-06-10T06:36:12.583Z,16.70
2019-06-10T06:38:43.636Z,16.80
2019-06-10T06:41:13.643Z,16.90
2019-06-10T06:43:45.234Z,17.00
2019-06-10T06:46:12.835Z,17.20
2019-06-10T06:48:43.920Z,17.70
2019-06-10T06:51:12.972Z,18.60
2019-06-10T06:53:48.375Z,19.60
2019-06-10T06:56:12.837Z,20.60
2019-06-10T06:58:43.368Z,21.50
2019-06-10T07:01:14.394Z,22.30
2019-06-10T07:03:45.113Z,22.90
2019-06-10T07:06:13.747Z,23.60
2019-06-10T07:08:57.758Z,24.00
2019-06-10T07:11:33.943Z,24.00
2019-06-10T07:14:04.265Z,23.90
2019-06-10T07:16:34.506Z,23.90
2019-06-10T07:19:03.048Z,23.90
2019-06-10T07:21:34.243Z,24.20
2019-06-10T07:24:03.203Z,24.60
2019-06-10T07:26:34.056Z,25.10
2019-06-10T07:29:02.931Z,25.60
2019-06-10T07:31:33.812Z,26.10
2019-06-10T07:34:02.600Z,26.40
2019-06-10T07:36:32.956Z,26.60
2019-06-10T07:39:03.523Z,26.80
2019-06-10T07:41:32.825Z,27.10
2019-06-10T07:44:03.088Z,27.30
2019-06-10T07:46:33.502Z,27.50
2019-06-10T07:49:03.378Z,27.70
2019-06-10T07:51:32.964Z,27.90
2019-06-10T07:54:03.215Z,28.10
2019-06-10T07:56:38.238Z,28.30
2019-06-10T07:59:03.914Z,28.40
2019-06-10T08:01:33.333Z,28.50
2019-06-10T08:04:03.094Z,28.60
2019-06-10T08:06:34.414Z,28.60
2019-06-10T08:09:02.343Z,28.70
2019-06-10T08:11:33.094Z,28.80
2019-06-10T08:14:04.608Z,28.80
2019-06-10T08:16:32.696Z,29.00
2019-06-10T08:19:29.413Z,29.00
2019-06-10T08:21:32.308Z,28.90
2019-06-10T08:24:03.316Z,28.90
2019-06-10T08:26:32.449Z,29.00
2019-06-10T08:29:04.376Z,29.20
2019-06-10T08:31:33.298Z,29.20
2019-06-10T08:34:03.040Z,29.40
2019-06-10T08:36:33.350Z,29.40
2019-06-10T08:39:03.297Z,29.40
2019-06-10T08:41:32.351Z,29.40
2019-06-10T08:44:02.269Z,29.40
2019-06-10T08:46:32.907Z,29.50
2019-06-10T08:49:03.134Z,29.60
2019-06-10T08:51:32.513Z,29.80
2019-06-10T08:54:02.404Z,29.90
2019-06-10T08:56:32.839Z,30.10
2019-06-10T08:59:03.243Z,30.40
2019-06-10T09:01:33.426Z,30.50
2019-06-10T09:04:03.147Z,30.60
2019-06-10T09:06:32.926Z,30.70
2019-06-10T09:09:03.154Z,30.80
2019-06-10T09:11:32.853Z,30.90
2019-06-10T09:14:02.542Z,31.00
2019-06-10T09:16:32.450Z,31.00
2019-06-10T09:19:02.267Z,31.20
2019-06-10T09:21:33.068Z,31.30
2019-06-10T09:24:03.840Z,31.20
2019-06-10T09:26:33.677Z,31.10
2019-06-10T09:29:02.863Z,31.10
2019-06-10T09:31:33.140Z,31.30
2019-06-10T09:34:03.901Z,31.40
2019-06-10T09:36:32.519Z,31.50
2019-06-10T09:39:03.925Z,31.40
2019-06-10T09:41:41.053Z,31.40
2019-06-10T09:44:03.194Z,31.50
2019-06-10T09:46:33.090Z,31.40
2019-06-10T09:49:02.296Z,31.40
2019-06-10T09:51:32.388Z,31.50
2019-06-10T09:54:06.363Z,31.40
2019-06-10T09:56:33.131Z,31.30
2019-06-10T09:59:03.726Z,31.20
2019-06-10T10:01:32.754Z,31.20
2019-06-10T10:04:01.331Z,31.20
2019-06-10T10:06:32.542Z,31.10
2019-06-10T10:09:00.158Z,31.20
2019-06-10T10:11:28.782Z,31.20
2019-06-10T10:13:57.386Z,31.30
2019-06-10T10:16:25.841Z,31.30
2019-06-10T10:19:00.156Z,31.50
2019-06-10T10:21:24.434Z,31.60
2019-06-10T10:24:06.265Z,31.70
2019-06-10T10:26:23.000Z,31.90
2019-06-10T10:28:53.193Z,32.00
2019-06-10T10:31:23.337Z,32.10
2019-06-10T10:33:52.671Z,32.00
2019-06-10T10:36:22.587Z,32.00
2019-06-10T10:38:51.230Z,32.00
2019-06-10T10:41:24.040Z,32.00
2019-06-10T10:43:56.544Z,32.00
2019-06-10T10:46:23.100Z,32.00
2019-06-10T10:48:55.162Z,31.90
2019-06-10T10:51:23.124Z,31.80
2019-06-10T10:54:16.961Z,31.70
2019-06-10T10:56:22.352Z,31.40
2019-06-10T10:58:55.630Z,31.20
2019-06-10T11:01:23.476Z,31.00
2019-06-10T11:03:52.509Z,30.80
2019-06-10T11:06:23.179Z,30.50
2019-06-10T11:08:55.204Z,30.40
2019-06-10T11:11:23.017Z,30.40
2019-06-10T11:13:56.617Z,30.40
2019-06-10T11:16:22.777Z,30.50
2019-06-10T11:18:53.798Z,30.70
2019-06-10T11:21:22.840Z,30.90
2019-06-10T11:23:57.407Z,31.10
2019-06-10T11:26:26.689Z,31.30
2019-06-10T11:28:55.639Z,31.50
2019-06-10T11:31:23.407Z,31.50
2019-06-10T11:33:57.039Z,31.40
2019-06-10T11:36:22.888Z,31.30
2019-06-10T11:38:55.151Z,31.20
2019-06-10T11:41:23.623Z,31.10
2019-06-10T11:43:55.025Z,31.00
2019-06-10T11:46:21.856Z,30.90
2019-06-10T11:48:53.662Z,30.70
2019-06-10T11:51:20.497Z,30.60
2019-06-10T11:53:49.936Z,30.50
2019-06-10T11:56:19.222Z,30.40
2019-06-10T11:58:47.896Z,30.30
2019-06-10T12:01:16.432Z,30.20
2019-06-10T12:03:44.840Z,30.10
2019-06-10T12:06:13.791Z,30.10
2019-06-10T12:08:43.780Z,30.00
2019-06-10T12:11:12.910Z,30.00
2019-06-10T12:13:42.845Z,30.00
2019-06-10T12:17:11.325Z,29.90
2019-06-10T12:18:42.631Z,29.90
2019-06-10T12:21:13.140Z,29.70
2019-06-10T12:23:43.532Z,29.50
2019-06-10T12:26:12.300Z,29.30
2019-06-10T12:28:43.130Z,29.20
2019-06-10T12:31:13.577Z,29.20
2019-06-10T12:33:42.117Z,29.20
2019-06-10T12:36:12.909Z,29.20
2019-06-10T12:38:43.410Z,29.50
2019-06-10T12:41:13.805Z,29.60
2019-06-10T12:43:43.390Z,29.80
2019-06-10T12:46:12.789Z,29.90
2019-06-10T12:48:42.696Z,29.90
2019-06-10T12:51:13.486Z,29.80
2019-06-10T12:53:43.312Z,29.80
2019-06-10T12:56:14.730Z,29.80
2019-06-10T12:58:43.242Z,29.70
2019-06-10T13:01:13.605Z,29.70
2019-06-10T13:03:43.737Z,29.60
2019-06-10T13:06:13.984Z,29.50
2019-06-10T13:08:43.002Z,29.40
2019-06-10T13:11:13.392Z,29.50
2019-06-10T13:13:43.508Z,29.60
2019-06-10T13:16:14.040Z,29.90
2019-06-10T13:18:42.065Z,30.10
2019-06-10T13:21:16.538Z,30.40
2019-06-10T13:23:42.900Z,30.70
2019-06-10T13:26:15.276Z,30.90
2019-06-10T13:28:43.088Z,31.10
2019-06-10T13:31:11.354Z,31.20
2019-06-10T13:33:42.636Z,31.10
2019-06-10T13:36:10.385Z,31.00
2019-06-10T13:38:38.805Z,31.00
2019-06-10T13:41:08.751Z,31.00
2019-06-10T13:43:37.182Z,31.10
2019-06-10T13:46:08.868Z,31.10
2019-06-10T13:48:35.933Z,30.80
2019-06-10T13:51:08.589Z,30.60
2019-06-10T13:53:34.621Z,30.50
2019-06-10T13:56:28.240Z,30.60
2019-06-10T13:58:33.187Z,30.60
2019-06-10T14:01:04.603Z,30.60
2019-06-10T14:03:32.681Z,30.70
2019-06-10T14:06:10.808Z,30.70
2019-06-10T14:08:32.446Z,30.90
2019-06-10T14:11:06.855Z,31.10
2019-06-10T14:13:32.635Z,31.20
2019-06-10T14:16:01.448Z,31.30
2019-06-10T14:18:32.410Z,31.30
2019-06-10T14:21:03.049Z,31.30
2019-06-10T14:23:32.939Z,31.30
2019-06-10T14:26:02.501Z,31.20
2019-06-10T14:28:40.075Z,31.20
2019-06-10T14:31:05.145Z,31.00
2019-06-10T14:33:32.945Z,30.70
2019-06-10T14:36:05.056Z,30.50
2019-06-10T14:38:32.746Z,30.40
2019-06-10T14:41:04.359Z,30.20
2019-06-10T14:43:33.168Z,30.10
2019-06-10T14:46:01.898Z,29.90
2019-06-10T14:48:30.361Z,29.70
2019-06-10T14:50:59.041Z,29.50
2019-06-10T14:53:29.149Z,29.30
2019-06-10T14:55:59.122Z,29.20
2019-06-10T14:58:27.536Z,29.00
2019-06-10T15:00:55.993Z,28.60
2019-06-10T15:03:24.401Z,28.30
2019-06-10T15:05:53.062Z,28.10
2019-06-10T15:08:23.037Z,27.80
2019-06-10T15:10:52.732Z,27.50
2019-06-10T15:13:23.595Z,27.10
2019-06-10T15:15:53.190Z,26.80
2019-06-10T15:18:23.696Z,26.60
2019-06-10T15:20:53.779Z,26.30
2019-06-10T15:23:23.512Z,26.10
2019-06-10T15:25:56.957Z,26.00
2019-06-10T15:28:24.307Z,25.90
2019-06-10T15:30:52.945Z,25.90
2019-06-10T15:33:23.616Z,25.80
2019-06-10T15:35:53.307Z,25.80
2019-06-10T15:38:23.232Z,25.70
2019-06-10T15:40:53.187Z,25.70
2019-06-10T15:43:23.415Z,25.70
2019-06-10T15:45:52.827Z,25.60
2019-06-10T15:48:25.084Z,25.60
2019-06-10T15:50:52.365Z,25.50
2019-06-10T15:53:25.295Z,25.50
2019-06-10T15:58:25.771Z,25.40
2019-06-10T16:00:53.604Z,25.30
2019-06-10T16:03:25.526Z,25.30
2019-06-10T16:05:53.054Z,25.20
2019-06-10T16:08:22.597Z,25.20
2019-06-10T16:10:52.609Z,25.20
2019-06-10T16:13:25.212Z,25.10
2019-06-10T16:15:53.237Z,25.10
2019-06-10T16:18:25.871Z,25.10
2019-06-10T16:20:52.791Z,25.00
2019-06-10T16:23:24.681Z,25.00
2019-06-10T16:25:53.341Z,25.00
2019-06-10T16:28:23.368Z,25.00
2019-06-10T16:30:53.700Z,25.00
2019-06-10T16:33:26.065Z,25.00
2019-06-10T16:35:52.830Z,25.00
2019-06-10T16:38:23.732Z,25.00
2019-06-10T16:40:53.590Z,25.00
2019-06-10T16:43:24.107Z,25.00
2019-06-10T16:45:52.600Z,24.90
2019-06-10T16:48:21.719Z,24.80
2019-06-10T16:50:54.003Z,24.80
2019-06-10T16:53:25.847Z,24.80
2019-06-10T16:55:52.725Z,24.80
2019-06-10T16:58:23.613Z,24.70
2019-06-10T17:00:51.023Z,24.70
2019-06-10T17:03:21.107Z,24.70
2019-06-10T17:05:49.622Z,24.60
2019-06-10T17:08:18.008Z,24.40
2019-06-10T17:10:46.421Z,24.30
2019-06-10T17:13:16.502Z,24.20
2019-06-10T17:15:44.914Z,24.20
2019-06-10T17:18:13.345Z,24.10
2019-06-10T17:20:42.960Z,24.10
2019-06-10T17:23:25.663Z,24.00
2019-06-10T17:25:53.524Z,23.90
2019-06-10T17:28:27.171Z,23.80
2019-06-10T17:30:54.129Z,23.70
2019-06-10T17:33:25.415Z,23.70
2019-06-10T17:35:52.790Z,23.70
2019-06-10T17:38:22.486Z,23.60
2019-06-10T17:40:52.131Z,23.60
2019-06-10T17:43:20.919Z,23.50
2019-06-10T17:45:49.495Z,23.50
2019-06-10T17:48:17.931Z,23.40
2019-06-10T17:50:46.353Z,23.20
2019-06-10T17:53:14.788Z,23.20
2019-06-10T17:55:43.343Z,23.10
2019-06-10T17:58:13.094Z,23.00
2019-06-10T18:00:42.229Z,22.90
2019-06-10T18:03:13.021Z,22.90
2019-06-10T18:05:42.700Z,22.90
2019-06-10T18:08:13.050Z,22.90
2019-06-10T18:10:43.396Z,22.80
2019-06-10T18:13:16.481Z,22.80
2019-06-10T18:15:41.814Z,22.70
2019-06-10T18:18:12.858Z,22.60
2019-06-10T18:20:43.254Z,22.60
2019-06-10T18:23:13.280Z,22.60
2019-06-10T18:25:43.083Z,22.60
2019-06-10T18:28:12.076Z,22.50
2019-06-10T18:30:43.249Z,22.50
2019-06-10T18:33:10.861Z,22.40
2019-06-10T18:35:39.392Z,22.30
2019-06-10T18:38:08.107Z,22.20
2019-06-10T18:40:37.194Z,22.20
2019-06-10T18:43:06.560Z,22.10
2019-06-10T18:45:38.191Z,22.00
2019-06-10T18:48:06.088Z,21.90
2019-06-10T18:50:36.166Z,21.70
2019-06-10T18:53:04.717Z,21.60
2019-06-10T18:55:39.082Z,21.50
2019-06-10T18:58:06.317Z,21.30
2019-06-10T19:00:54.558Z,21.20
2019-06-10T19:03:12.668Z,21.00
2019-06-10T19:05:37.847Z,20.90
2019-06-10T19:08:06.639Z,20.70
2019-06-10T19:10:37.103Z,20.60
2019-06-10T19:13:05.956Z,20.50
2019-06-10T19:15:35.665Z,20.40
2019-06-10T19:18:04.739Z,20.20
2019-06-10T19:20:36.927Z,20.00
2019-06-10T19:23:03.310Z,19.80
2019-06-10T19:25:33.764Z,19.60
2019-06-10T19:28:03.419Z,19.40
2019-06-10T19:30:35.789Z,19.20
2019-06-10T19:33:02.670Z,19.00
2019-06-10T19:35:33.578Z,18.80
2019-06-10T19:38:03.756Z,18.60
2019-06-10T19:40:33.866Z,18.50
2019-06-10T19:43:03.216Z,18.30
2019-06-10T19:45:32.355Z,18.10
2019-06-10T19:48:03.117Z,18.00
2019-06-10T19:50:34.027Z,18.00
2019-06-10T19:53:02.657Z,17.90
2019-06-10T19:55:32.977Z,17.90
2019-06-10T19:58:03.823Z,17.80
2019-06-10T20:00:33.089Z,17.70
2019-06-10T20:03:02.888Z,17.70
2019-06-10T20:05:32.646Z,17.60
2019-06-10T20:08:03.081Z,17.60
2019-06-10T20:10:32.451Z,17.60
2019-06-10T20:13:01.149Z,17.60
2019-06-10T20:15:29.647Z,17.60
2019-06-10T20:17:58.066Z,17.50
2019-06-10T20:20:26.495Z,17.50
2019-06-10T20:22:57.377Z,17.50
2019-06-10T20:25:25.184Z,17.40
2019-06-10T20:27:53.601Z,17.40
2019-06-10T20:30:28.407Z,17.40
2019-06-10T20:32:55.939Z,17.40
2019-06-10T20:35:23.257Z,17.30
2019-06-10T20:37:53.998Z,17.30
2019-06-10T20:40:22.852Z,17.30
2019-06-10T20:42:51.335Z,17.30
2019-06-10T20:45:19.915Z,17.30
2019-06-10T20:47:48.630Z,17.30
2019-06-10T20:50:17.692Z,17.30
2019-06-10T20:52:47.501Z,17.30
2019-06-10T20:55:16.320Z,17.40
2019-06-10T20:57:54.923Z,17.40
2019-06-10T21:00:22.724Z,17.40
2019-06-10T21:02:49.072Z,17.40
2019-06-10T21:05:18.441Z,17.40
2019-06-10T21:07:48.575Z,17.40
2019-06-10T21:10:22.298Z,17.40
2019-06-10T21:12:51.033Z,17.40
2019-06-10T21:15:19.570Z,17.50
2019-06-10T21:17:49.134Z,17.50
2019-06-10T21:20:17.784Z,17.50
2019-06-10T21:22:47.431Z,17.50
2019-06-10T21:25:16.302Z,17.50
2019-06-10T21:27:46.135Z,17.50
2019-06-10T21:30:14.916Z,17.50
2019-06-10T21:32:45.298Z,17.60
2019-06-10T21:35:13.525Z,17.60
2019-06-10T21:37:43.910Z,17.60
2019-06-10T21:40:12.758Z,17.60
2019-06-10T21:42:41.706Z,17.50
2019-06-10T21:45:12.477Z,17.60
2019-06-10T21:47:44.070Z,17.60
2019-06-10T21:50:12.601Z,17.60
2019-06-10T21:52:44.372Z,17.60
2019-06-10T21:55:13.121Z,17.60
2019-06-10T21:57:42.987Z,17.60
2019-06-10T22:00:15.174Z,17.60
2019-06-10T22:02:45.223Z,17.60
2019-06-10T22:05:14.721Z,17.60
2019-06-10T22:07:43.860Z,17.60
2019-06-10T22:10:13.083Z,17.60
2019-06-10T22:12:42.145Z,17.60
2019-06-10T22:15:12.547Z,17.50
2019-06-10T22:17:42.556Z,17.50
2019-06-10T22:20:12.799Z,17.40
2019-06-10T22:22:42.877Z,17.50
2019-06-10T22:25:13.167Z,17.40
2019-06-10T22:27:42.210Z,17.40
2019-06-10T22:30:11.736Z,17.40
2019-06-10T22:32:42.792Z,17.40
2019-06-10T22:35:12.303Z,17.40
2019-06-10T22:37:40.881Z,17.40
2019-06-10T22:40:12.261Z,17.40
2019-06-10T22:42:40.080Z,17.40
2019-06-10T22:45:09.035Z,17.40
2019-06-10T22:47:37.465Z,17.40
2019-06-10T22:50:07.706Z,17.30
2019-06-10T22:52:36.696Z,17.30
2019-06-10T22:55:07.387Z,17.30
2019-06-10T22:57:36.981Z,17.30
2019-06-10T23:00:08.192Z,17.30
2019-06-10T23:02:37.915Z,17.30
2019-06-10T23:05:07.168Z,17.30
2019-06-10T23:07:35.650Z,17.20
2019-06-10T23:10:06.117Z,17.30
2019-06-10T23:12:34.533Z,17.30
2019-06-10T23:15:03.053Z,17.30
2019-06-10T23:17:31.534Z,17.30
2019-06-10T23:19:59.946Z,17.30
2019-06-10T23:22:28.517Z,17.30
2019-06-10T23:24:57.725Z,17.20
2019-06-10T23:27:26.291Z,17.20
2019-06-10T23:29:56.022Z,17.20
2019-06-10T23:32:24.929Z,17.10
2019-06-10T23:34:54.669Z,17.20
2019-06-10T23:37:23.486Z,17.10
2019-06-10T23:39:52.774Z,17.10
2019-06-10T23:42:22.775Z,17.10
2019-06-10T23:44:51.314Z,17.10
2019-06-10T23:47:22.086Z,17.00
2019-06-10T23:49:51.422Z,17.00
2019-06-10T23:52:22.045Z,17.00
2019-06-10T23:54:51.540Z,17.00
2019-06-10T23:57:22.229Z,17.00
2019-06-10T23:59:52.469Z,17.00
